Time;durP1;ratioP1;P1;durP2;ratioP2;P2;SDS_P1;SDS_P2;PMS_P1;PMS_P2;Temp;Humidity;BMP_temperature;BMP_pressure;BME280_temperature;BME280_humidity;BME280_pressure;Samples;Min_cycle;Max_cycle;Signal;HPM_P1;HPM_P2
2023/06/16 00:01:41;;;;;;;10.88;5.88;;;;;;;22.01;44.99;99903.19;4906065;28;20221;-93
2023/06/16 00:04:08;;;;;;;9.13;5.78;;;;;;;21.97;45.04;99904.63;4893895;28;20103;-94
2023/06/16 00:06:36;;;;;;;12.68;5.30;;;;;;;21.95;45.23;99898.59;4902479;28;20127;-93
2023/06/16 00:09:02;;;;;;;9.45;5.68;;;;;;;21.94;45.21;99905.06;4890388;28;20044;-93
2023/06/16 00:11:29;;;;;;;8.13;5.35;;;;;;;21.93;44.75;99906.94;4885961;28;20480;-93
2023/06/16 00:13:57;;;;;;;9.88;5.55;;;;;;;21.93;44.93;99908.78;4884321;28;20403;-92
2023/06/16 00:16:24;;;;;;;7.50;5.38;;;;;;;21.86;45.11;99900.69;4897160;28;20048;-94
2023/06/16 00:18:52;;;;;;;6.57;5.20;;;;;;;21.84;45.17;99913.56;4908561;28;20052;-92
2023/06/16 00:21:27;;;;;;;11.32;5.93;;;;;;;21.72;45.65;99907.13;4896512;28;20067;-93
2023/06/16 00:23:54;;;;;;;10.20;5.78;;;;;;;21.76;45.30;99903.81;4916376;28;20060;-93
2023/06/16 00:26:22;;;;;;;11.57;5.88;;;;;;;21.75;45.32;99904.00;4903141;28;20051;-90
2023/06/16 00:28:50;;;;;;;7.43;5.65;;;;;;;21.70;45.41;99901.09;4901303;28;20131;-92
2023/06/16 00:31:16;;;;;;;10.43;5.20;;;;;;;21.68;45.32;99898.59;4893695;28;20051;-93
2023/06/16 00:33:43;;;;;;;6.95;5.63;;;;;;;21.66;45.42;99912.31;4903228;28;20043;-92
2023/06/16 00:36:10;;;;;;;6.97;5.50;;;;;;;21.66;45.59;99911.50;4899661;28;20095;-91
2023/06/16 00:38:37;;;;;;;7.80;5.32;;;;;;;21.60;45.34;99912.28;4903410;28;20522;-93
2023/06/16 00:41:04;;;;;;;8.25;5.03;;;;;;;21.56;45.71;99902.94;4884371;28;20075;-92
2023/06/16 00:43:31;;;;;;;7.35;5.30;;;;;;;21.51;45.55;99911.66;4888553;28;20134;-93
2023/06/16 00:45:57;;;;;;;11.45;5.28;;;;;;;;;;4892560;28;20043;-92
2023/06/16 00:48:24;;;;;;;7.90;5.13;;;;;;;21.44;45.87;99902.72;4903220;28;20131;-93
2023/06/16 00:50:51;;;;;;;8.15;4.90;;;;;;;21.43;46.54;99911.88;4888678;28;20122;-93
2023/06/16 00:53:18;;;;;;;8.32;5.28;;;;;;;21.42;46.71;99905.63;4883244;28;20051;-93
2023/06/16 00:55:46;;;;;;;9.43;4.80;;;;;;;21.35;47.43;99902.06;4888254;28;20052;-93
2023/06/16 00:58:14;;;;;;;7.10;4.93;;;;;;;21.35;47.60;99902.06;4876994;28;20052;-93
2023/06/16 01:00:40;;;;;;;7.60;5.50;;;;;;;21.31;47.49;99897.25;4902953;28;20047;-93
2023/06/16 01:03:08;;;;;;;9.63;5.72;;;;;;;21.25;47.42;99907.84;4897421;28;20079;-93
2023/06/16 01:05:36;;;;;;;8.82;5.55;;;;;;;21.24;47.08;99903.50;4907227;28;20048;-91
2023/06/16 01:08:16;;;;;;;8.32;5.40;;;;;;;21.06;47.71;99902.38;4885268;28;20048;-92
2023/06/16 01:10:58;;;;;;;6.95;5.55;;;;;;;21.03;47.50;99901.72;4893609;28;20491;-92
2023/06/16 01:13:39;;;;;;;10.70;5.13;;;;;;;20.98;47.57;99901.50;4898204;28;20500;-92
2023/06/16 01:16:07;;;;;;;8.27;5.63;;;;;;;21.03;47.32;99909.84;4915566;28;20558;-92
2023/06/16 01:18:35;;;;;;;7.43;5.22;;;;;;;21.10;46.79;99912.56;4902788;28;20119;-91
2023/06/16 01:21:10;;;;;;;6.82;5.15;;;;;;;21.05;46.97;99916.91;4887960;28;20047;-91
2023/06/16 01:24:01;;;;;;;8.23;5.40;;;;;;;20.89;47.82;99912.69;4901933;28;20051;-90
2023/06/16 01:26:32;;;;;;;8.65;5.28;;;;;;;21.05;47.60;99915.03;4900657;28;20040;-89
2023/06/16 01:29:02;;;;;;;9.23;5.20;;;;;;;21.11;47.40;99919.63;4903532;28;20059;-93
2023/06/16 01:31:31;;;;;;;7.75;5.55;;;;;;;20.99;47.67;99903.19;4891288;28;20128;-90
2023/06/16 01:34:02;;;;;;;7.43;5.38;;;;;;;20.98;47.58;99906.91;4903347;28;20055;-92
2023/06/16 01:36:31;;;;;;;6.55;5.15;;;;;;;21.01;47.45;99911.06;4910039;28;20118;-91
2023/06/16 01:39:02;;;;;;;6.97;5.53;;;;;;;20.93;47.53;99893.19;4902015;28;20123;-91
2023/06/16 01:41:31;;;;;;;5.95;5.20;;;;;;;20.93;47.44;99895.88;4947950;28;20123;-92
2023/06/16 01:43:59;;;;;;;6.10;5.05;;;;;;;20.88;47.54;99902.94;4883568;28;20060;-90
2023/06/16 01:46:27;;;;;;;7.75;5.68;;;;;;;20.85;47.76;99903.34;4890079;28;20048;-92
2023/06/16 01:48:54;;;;;;;7.53;5.20;;;;;;;20.85;47.46;99903.34;4887396;28;20055;-90
2023/06/16 01:51:22;;;;;;;8.48;5.43;;;;;;;20.84;47.64;99905.22;4907182;28;20052;-90
2023/06/16 01:53:49;;;;;;;10.85;6.10;;;;;;;20.82;47.53;99907.28;4904525;28;20079;-92
2023/06/16 01:56:16;;;;;;;7.00;5.18;;;;;;;20.75;47.69;99906.41;4883906;28;20044;-91
2023/06/16 01:58:43;;;;;;;6.68;4.57;;;;;;;20.68;47.94;99903.66;4906496;28;20101;-92
2023/06/16 02:01:30;;;;;;;7.22;4.95;;;;;;;20.53;48.18;99911.00;4910709;28;20056;-91
2023/06/16 02:04:06;;;;;;;8.50;4.93;;;;;;;20.59;47.95;99911.09;4918075;28;20053;-92
2023/06/16 02:06:37;;;;;;;7.45;4.70;;;;;;;20.53;48.13;99913.72;4901875;28;20080;-92
2023/06/16 02:09:09;;;;;;;7.47;5.32;;;;;;;20.57;47.87;99917.72;4902387;28;20163;-91
2023/06/16 02:11:37;;;;;;;7.25;5.38;;;;;;;20.57;47.94;99920.41;4898721;28;20048;-91
2023/06/16 02:14:04;;;;;;;6.65;5.35;;;;;;;20.53;47.98;99913.72;4906061;28;20140;-90
2023/06/16 02:16:39;;;;;;;7.72;5.30;;;;;;;20.35;48.95;99912.38;4890876;28;20048;-91
2023/06/16 02:19:06;;;;;;;6.95;5.10;;;;;;;20.44;48.64;99904.13;4890213;28;20063;-92
2023/06/16 02:21:33;;;;;;;6.80;5.00;;;;;;;20.38;48.64;99911.16;4887259;28;20411;-91
2023/06/16 02:24:00;;;;;;;6.68;5.22;;;;;;;20.35;48.58;99917.78;4902476;28;20075;-91
2023/06/16 02:26:27;;;;;;;7.45;5.10;;;;;;;20.27;49.77;99923.31;4915304;28;20055;-92
2023/06/16 02:28:54;;;;;;;8.05;5.50;;;;;;;20.17;50.08;99920.13;4887230;28;20447;-91
2023/06/16 02:31:21;;;;;;;6.82;5.00;;;;;;;20.11;50.71;99923.59;4912744;28;20443;-90
2023/06/16 02:33:51;;;;;;;9.32;5.50;;;;;;;20.06;50.63;99916.09;4905710;28;20454;-89
2023/06/16 02:36:18;;;;;;;7.10;5.32;;;;;;;20.02;50.36;99912.13;4903648;28;20138;-91
2023/06/16 02:38:45;;;;;;;9.30;5.30;;;;;;;19.99;50.24;99920.59;4890454;28;20122;-89
2023/06/16 02:41:13;;;;;;;8.82;5.43;;;;;;;19.92;50.28;99925.97;4899096;28;20399;-89
2023/06/16 02:43:40;;;;;;;8.75;5.40;;;;;;;19.93;50.49;99919.53;4887858;28;20072;-91
2023/06/16 02:46:07;;;;;;;7.57;4.60;;;;;;;19.91;50.29;99926.13;4903625;28;20048;-90
2023/06/16 02:48:34;;;;;;;6.95;4.82;;;;;;;19.85;50.37;99921.53;4905052;28;20071;-92
2023/06/16 02:51:01;;;;;;;11.80;5.32;;;;;;;19.80;50.39;99918.59;4884753;28;20059;-92
2023/06/16 02:53:29;;;;;;;10.32;5.32;;;;;;;19.81;50.15;99918.38;4900533;28;20079;-92
2023/06/16 02:55:59;;;;;;;8.02;4.82;;;;;;;19.76;50.20;99914.59;4886424;28;20369;-91
2023/06/16 02:58:28;;;;;;;5.53;4.72;;;;;;;19.72;50.27;99920.38;4868909;28;20542;-91
2023/06/16 03:00:56;;;;;;;9.07;5.65;;;;;;;19.77;50.12;99921.66;4896646;28;20052;-90
2023/06/16 03:03:31;;;;;;;6.35;5.45;;;;;;;19.67;50.31;99922.00;4887183;28;20044;-90
2023/06/16 03:06:16;;;;;;;9.40;5.55;;;;;;;19.64;50.23;99917.78;4896685;28;20044;-91
2023/06/16 03:08:43;;;;;;;8.85;5.07;;;;;;;19.58;50.32;99925.81;4890149;28;20090;-91
2023/06/16 03:11:10;;;;;;;5.85;5.18;;;;;;;19.54;50.58;99919.97;4889793;28;20060;-91
2023/06/16 03:13:46;;;;;;;5.60;5.00;;;;;;;19.53;50.16;99923.69;4896850;28;20495;-85
2023/06/16 03:16:17;;;;;;;6.57;5.03;;;;;;;19.61;49.87;99922.72;4911851;28;20059;-85
2023/06/16 03:18:44;;;;;;;11.18;4.90;;;;;;;19.57;50.38;99924.16;4911616;28;20044;-85
2023/06/16 03:21:11;;;;;;;7.55;4.90;;;;;;;19.52;50.63;99932.78;4905559;28;20043;-85
2023/06/16 03:23:44;;;;;;;8.07;4.80;;;;;;;19.51;50.96;99934.66;4912325;28;20044;-85
2023/06/16 03:26:12;;;;;;;6.78;5.07;;;;;;;19.43;50.77;99934.75;4909766;28;20788;-84
2023/06/16 03:29:01;;;;;;;6.63;4.57;;;;;;;19.36;51.30;99935.72;4908376;28;20186;-83
2023/06/16 03:31:30;;;;;;;8.45;5.32;;;;;;;19.39;50.55;99935.34;4890492;28;20056;-85
2023/06/16 03:33:59;;;;;;;11.60;5.18;;;;;;;19.41;50.26;99930.59;4907728;28;20478;-85
2023/06/16 03:36:48;;;;;;;7.90;4.90;;;;;;;19.38;49.88;99930.97;4907316;28;20048;-85
2023/06/16 03:39:19;;;;;;;10.35;5.30;;;;;;;19.39;50.02;99935.34;4927150;28;20056;-85
2023/06/16 03:41:46;;;;;;;4.97;4.45;;;;;;;19.37;50.25;99934.69;4903635;28;20553;-85
2023/06/16 03:44:13;;;;;;;6.78;4.70;;;;;;;19.45;49.71;99934.56;4913348;28;20071;-85
2023/06/16 03:46:40;;;;;;;6.78;4.93;;;;;;;19.58;49.61;99940.09;4911047;28;20078;-85
2023/06/16 03:49:10;;;;;;;6.35;4.85;;;;;;;19.64;49.31;99938.50;4916405;28;20044;-85
2023/06/16 03:51:39;;;;;;;;;;;;;;;19.24;50.14;99943.47;4920233;28;20130;-85
2023/06/16 03:54:07;;;;;;;6.93;5.53;;;;;;;19.56;50.09;99941.31;4896045;28;19930;-85
2023/06/16 03:56:34;;;;;;;8.02;6.00;;;;;;;19.62;49.91;99936.00;4885551;28;20503;-85
2023/06/16 03:59:01;;;;;;;7.57;5.75;;;;;;;19.74;50.20;99939.03;4907240;28;20044;-84
2023/06/16 04:01:30;;;;;;;7.45;5.18;;;;;;;19.94;49.30;99945.44;4916383;28;20051;-85
2023/06/16 04:03:57;;;;;;;9.85;5.85;;;;;;;20.30;48.73;99944.50;4899960;28;20752;-85
2023/06/16 04:06:25;;;;;;;13.05;5.65;;;;;;;20.46;48.03;99945.22;4875663;28;20048;-85
2023/06/16 04:08:59;;;;;;;8.32;6.10;;;;;;;20.45;47.73;99941.69;4918410;28;20044;-84
2023/06/16 04:11:27;;;;;;;8.52;5.95;;;;;;;20.32;47.64;99944.28;4919269;28;20603;-85
2023/06/16 04:13:54;;;;;;;8.45;6.03;;;;;;;20.17;47.99;99949.78;4903876;28;20070;-85
2023/06/16 04:16:21;;;;;;;9.85;5.45;;;;;;;20.14;48.02;99940.22;4914175;28;20044;-85
2023/06/16 04:18:49;;;;;;;7.20;5.90;;;;;;;20.05;47.80;99951.31;4907040;28;20050;-85
2023/06/16 04:21:16;;;;;;;11.30;6.68;;;;;;;20.20;47.90;99956.63;4897140;28;20043;-85
2023/06/16 04:23:43;;;;;;;8.38;6.00;;;;;;;20.21;47.77;99956.44;4922416;28;20044;-84
2023/06/16 04:26:11;;;;;;;8.80;5.70;;;;;;;20.26;47.71;99958.56;4901038;28;20059;-83
2023/06/16 04:28:44;;;;;;;9.77;5.55;;;;;;;20.31;47.20;99951.56;4906632;28;20101;-84
2023/06/16 04:31:14;;;;;;;16.40;6.20;;;;;;;20.34;46.66;99955.72;4915791;28;20044;-84
2023/06/16 04:33:41;;;;;;;9.13;6.25;;;;;;;20.35;46.93;99960.06;4927390;28;20189;-84
2023/06/16 04:36:10;;;;;;;11.65;6.68;;;;;;;20.37;46.86;99950.75;4901998;28;20056;-84
2023/06/16 04:38:38;;;;;;;10.43;6.15;;;;;;;20.45;46.69;99951.63;4908784;28;20052;-84
2023/06/16 04:41:05;;;;;;;8.32;6.03;;;;;;;20.52;46.51;99953.34;4910028;28;20044;-84
2023/06/16 04:43:32;;;;;;;11.32;6.93;;;;;;;20.55;46.45;99954.84;4926527;28;20123;-84
2023/06/16 04:45:59;;;;;;;10.75;6.75;;;;;;;20.67;46.47;99950.56;4915513;28;20052;-85
2023/06/16 04:48:28;;;;;;;9.10;5.80;;;;;;;20.72;46.17;99952.69;4917201;28;20500;-85
2023/06/16 04:50:57;;;;;;;7.60;6.20;;;;;;;20.66;46.31;99948.06;4920834;28;20392;-83
2023/06/16 04:53:24;;;;;;;9.48;6.25;;;;;;;20.63;46.36;99952.00;4914280;28;20063;-83
2023/06/16 04:55:51;;;;;;;10.23;6.45;;;;;;;20.61;46.38;99948.69;4927091;28;20602;-83
2023/06/16 04:58:17;;;;;;;10.15;7.07;;;;;;;20.63;46.88;99945.75;4914434;28;20066;-83
2023/06/16 05:00:44;;;;;;;9.63;6.95;;;;;;;20.58;46.50;99947.22;4912316;28;20064;-83
2023/06/16 05:03:11;;;;;;;12.57;6.13;;;;;;;20.59;46.74;99940.78;4915233;28;20524;-83
2023/06/16 05:05:38;;;;;;;10.48;6.47;;;;;;;20.52;46.81;99942.56;4903027;28;20059;-83
2023/06/16 05:08:05;;;;;;;7.97;6.40;;;;;;;20.52;46.88;99944.44;4916848;28;20063;-83
2023/06/16 05:10:32;;;;;;;9.50;7.18;;;;;;;20.49;47.12;99940.25;4899548;28;20083;-84
2023/06/16 05:13:00;;;;;;;8.43;5.95;;;;;;;20.46;47.27;99940.66;4914001;28;20453;-83
2023/06/16 05:15:28;;;;;;;8.27;6.30;;;;;;;20.43;47.22;99945.59;4915367;28;20134;-83
2023/06/16 05:17:55;;;;;;;10.70;6.88;;;;;;;20.44;47.01;99945.41;4904768;28;20055;-83
2023/06/16 05:20:22;;;;;;;9.60;7.18;;;;;;;20.46;47.17;99935.28;4915922;28;20496;-83
2023/06/16 05:22:49;;;;;;;11.07;6.75;;;;;;;20.40;47.23;99936.03;4913228;28;20051;-83
2023/06/16 05:25:16;;;;;;;9.63;6.80;;;;;;;20.42;47.50;99943.94;4912450;28;20105;-83
2023/06/16 05:27:43;;;;;;;10.95;7.20;;;;;;;20.39;47.34;99946.00;4880724;28;20689;-83
2023/06/16 05:30:10;;;;;;;11.70;7.15;;;;;;;20.48;47.41;99940.44;4915632;28;20048;-84
2023/06/16 05:32:38;;;;;;;14.07;6.82;;;;;;;20.56;47.28;99937.66;4907030;28;20056;-83
2023/06/16 05:35:07;;;;;;;10.00;6.97;;;;;;;20.49;47.38;99945.66;4890585;28;20102;-84
2023/06/16 05:37:34;;;;;;;12.38;7.20;;;;;;;20.46;47.44;99946.06;4906971;28;20048;-83
2023/06/16 05:40:03;;;;;;;9.50;7.65;;;;;;;20.46;47.38;99948.75;4925429;28;20046;-83
2023/06/16 05:42:33;;;;;;;12.80;7.55;;;;;;;20.48;47.46;99946.69;4910415;28;21297;-84
2023/06/16 05:45:00;;;;;;;11.13;7.15;;;;;;;20.44;47.45;99948.13;4914218;28;20135;-83
2023/06/16 05:47:29;;;;;;;11.00;7.30;;;;;;;20.49;47.59;99945.66;4912200;28;20055;-84
2023/06/16 05:49:58;;;;;;;10.98;6.80;;;;;;;20.49;47.53;99945.66;4902404;28;20151;-84
2023/06/16 05:52:25;;;;;;;11.05;6.72;;;;;;;20.48;47.86;99945.84;4915787;28;20118;-83
2023/06/16 05:54:52;;;;;;;9.93;6.68;;;;;;;20.52;47.69;99947.94;4897546;28;20071;-84
2023/06/16 05:57:26;;;;;;;12.60;7.50;;;;;;;20.58;47.34;99946.34;4911646;28;20079;-84
2023/06/16 05:59:53;;;;;;;13.02;6.88;;;;;;;20.58;47.79;99946.34;4915870;28;20071;-84
2023/06/16 06:02:20;;;;;;;10.23;7.05;;;;;;;20.65;47.88;99947.22;4913035;28;20098;-84
2023/06/16 06:04:48;;;;;;;11.20;7.55;;;;;;;20.64;47.77;99953.66;4913323;28;20047;-84
2023/06/16 06:07:15;;;;;;;11.40;7.45;;;;;;;20.65;47.93;99957.19;4915920;28;20070;-84
2023/06/16 06:09:42;;;;;;;12.85;6.93;;;;;;;20.64;47.61;99953.66;4899496;28;20040;-84
2023/06/16 06:12:11;;;;;;;14.43;7.97;;;;;;;20.63;47.79;99954.69;4915621;28;20807;-84
2023/06/16 06:14:38;;;;;;;13.48;7.53;;;;;;;20.63;47.58;99948.47;4914921;28;20407;-84
2023/06/16 06:17:05;;;;;;;11.93;7.28;;;;;;;20.74;47.70;99954.16;4901500;28;20110;-84
2023/06/16 06:19:32;;;;;;;11.43;6.60;;;;;;;20.91;47.44;99956.50;4913589;28;20122;-83
2023/06/16 06:22:00;;;;;;;17.13;8.35;;;;;;;20.84;47.29;99966.44;4913318;28;20798;-84
2023/06/16 06:24:28;;;;;;;11.35;6.88;;;;;;;20.94;47.09;99970.44;4914713;28;20133;-84
2023/06/16 06:26:57;;;;;;;11.57;7.10;;;;;;;20.92;47.33;99968.97;4911894;28;20412;-84
2023/06/16 06:29:24;;;;;;;11.48;6.78;;;;;;;20.88;47.31;99971.22;4905306;28;20078;-84
2023/06/16 06:31:52;;;;;;;12.52;6.97;;;;;;;21.06;47.25;99965.28;4910555;28;20130;-84
2023/06/16 06:34:19;;;;;;;14.18;6.78;;;;;;;21.10;47.09;99971.16;4900217;28;20146;-84
2023/06/16 06:36:47;;;;;;;11.52;7.63;;;;;;;21.11;46.85;99980.91;4909390;28;20047;-84
2023/06/16 06:39:16;;;;;;;9.45;6.35;;;;;;;21.18;47.07;99979.06;4917090;28;20044;-84
2023/06/16 06:41:43;;;;;;;8.77;7.07;;;;;;;21.25;47.02;99975.34;4898853;28;20044;-84
2023/06/16 06:44:15;;;;;;;9.52;6.57;;;;;;;21.26;46.85;99981.59;4906681;28;20040;-84
2023/06/16 06:46:49;;;;;;;12.05;7.47;;;;;;;21.24;46.68;99975.53;4914191;28;20079;-84
2023/06/16 06:49:17;;;;;;;11.82;6.65;;;;;;;21.31;47.17;99986.38;4896244;28;20059;-84
2023/06/16 06:51:44;;;;;;;10.55;6.82;;;;;;;21.32;46.94;99985.34;4901797;28;20070;-84
2023/06/16 06:54:11;;;;;;;11.82;6.53;;;;;;;21.30;46.46;99980.16;4912500;28;20048;-84
2023/06/16 06:56:38;;;;;;;9.88;6.88;;;;;;;21.32;46.62;99978.09;4913809;28;20048;-84
2023/06/16 06:59:05;;;;;;;9.82;6.55;;;;;;;21.41;46.26;99986.88;4913783;28;20534;-84
2023/06/16 07:01:32;;;;;;;11.88;6.55;;;;;;;21.44;46.17;99981.88;4926022;28;20662;-84
2023/06/16 07:03:58;;;;;;;8.65;5.72;;;;;;;21.50;46.27;99982.97;4910886;28;20047;-84
2023/06/16 07:06:25;;;;;;;8.35;6.35;;;;;;;21.50;45.43;99976.69;4913017;28;20500;-84
2023/06/16 07:08:52;;;;;;;7.07;5.95;;;;;;;21.55;45.35;99980.47;4915250;28;20052;-84
2023/06/16 07:11:19;;;;;;;9.63;5.50;;;;;;;21.58;45.33;99981.94;4906539;28;20125;-84
2023/06/16 07:13:46;;;;;;;10.77;5.57;;;;;;;21.60;45.63;99985.25;4911734;28;20052;-84
2023/06/16 07:16:13;;;;;;;8.43;5.95;;;;;;;21.61;45.51;99978.81;4928703;28;20044;-84
2023/06/16 07:18:40;;;;;;;9.18;6.28;;;;;;;21.67;45.81;99992.34;4918890;28;20770;-85
2023/06/16 07:21:06;;;;;;;13.07;6.15;;;;;;;21.69;45.59;99992.16;4900988;28;20467;-84
2023/06/16 07:23:33;;;;;;;9.95;5.90;;;;;;;21.73;45.64;99992.56;4913821;28;20110;-84
2023/06/16 07:26:00;;;;;;;10.05;6.57;;;;;;;21.75;45.43;99987.78;4929526;28;20056;-84
2023/06/16 07:28:27;;;;;;;12.32;6.63;;;;;;;21.77;45.47;99993.81;4915011;28;20051;-84
2023/06/16 07:30:55;;;;;;;9.95;6.82;;;;;;;21.77;45.75;99980.31;4929009;28;20051;-84
2023/06/16 07:33:21;;;;;;;11.35;6.93;;;;;;;21.82;46.11;99988.63;4914458;28;20523;-84
2023/06/16 07:35:48;;;;;;;10.57;7.05;;;;;;;21.83;46.53;99987.59;4934256;28;20071;-84
2023/06/16 07:38:15;;;;;;;9.65;6.43;;;;;;;21.82;46.55;99992.16;4915273;28;20106;-84
2023/06/16 07:40:42;;;;;;;8.40;6.40;;;;;;;21.85;47.34;99982.81;4905024;28;20044;-84
2023/06/16 07:43:09;;;;;;;9.13;5.85;;;;;;;21.88;47.26;99996.78;4927134;28;20072;-84
2023/06/16 07:45:36;;;;;;;9.00;6.20;;;;;;;21.91;47.38;99990.13;4901531;28;20059;-84
2023/06/16 07:48:04;;;;;;;8.80;5.97;;;;;;;21.95;47.21;99996.75;4930858;28;20462;-84
2023/06/16 07:50:31;;;;;;;9.30;6.53;;;;;;;21.97;47.60;99994.69;4930837;28;20039;-84
2023/06/16 07:52:57;;;;;;;9.60;6.60;;;;;;;22.02;47.68;99989.50;4929037;28;20051;-84
2023/06/16 07:55:24;;;;;;;9.75;6.80;;;;;;;22.03;47.39;99991.19;4913363;28;20126;-84
2023/06/16 07:57:51;;;;;;;10.23;5.15;;;;;;;22.08;47.25;99985.13;4895440;28;20040;-84
2023/06/16 08:00:19;;;;;;;8.85;5.85;;;;;;;22.12;47.32;99986.38;4918037;28;20055;-84
2023/06/16 08:02:46;;;;;;;10.00;5.85;;;;;;;22.17;46.56;99985.78;4899021;28;20052;-84
2023/06/16 08:05:16;;;;;;;7.40;5.53;;;;;;;22.21;46.17;99984.31;4918847;28;20059;-84
2023/06/16 08:07:43;;;;;;;7.32;5.20;;;;;;;22.25;46.50;99983.69;4912174;28;20139;-85
2023/06/16 08:10:11;;;;;;;7.93;4.90;;;;;;;22.29;45.73;99974.16;4896136;28;20833;-85
2023/06/16 08:12:41;;;;;;;7.50;5.22;;;;;;;22.34;45.16;99976.22;4915577;28;20051;-85
2023/06/16 08:15:08;;;;;;;10.05;5.30;;;;;;;22.38;44.71;99971.22;4909648;28;20863;-84
2023/06/16 08:17:36;;;;;;;8.32;5.57;;;;;;;22.41;44.79;99968.91;4901594;28;20068;-85
2023/06/16 08:20:06;;;;;;;8.50;5.20;;;;;;;22.47;44.69;99969.97;4889704;28;20126;-85
2023/06/16 08:22:33;;;;;;;9.07;4.97;;;;;;;22.49;44.07;99975.97;4907450;28;20124;-85
2023/06/16 08:25:01;;;;;;;8.00;5.15;;;;;;;22.51;43.57;99961.19;4884524;28;20052;-85
2023/06/16 08:27:28;;;;;;;9.68;5.22;;;;;;;22.58;43.06;99968.50;4914460;28;20052;-84
2023/06/16 08:29:54;;;;;;;10.35;5.20;;;;;;;22.60;42.82;99964.53;4917149;28;20122;-84
2023/06/16 08:32:22;;;;;;;11.88;7.30;;;;;;;22.62;43.15;99967.00;4912620;28;20459;-85
2023/06/16 08:34:49;;;;;;;7.47;4.47;;;;;;;22.65;42.35;99955.78;4927919;28;20072;-84
2023/06/16 08:37:16;;;;;;;7.97;4.80;;;;;;;22.71;41.69;99969.28;4911611;28;20052;-85
2023/06/16 08:39:56;;;;;;;8.60;4.30;;;;;;;22.70;40.92;99958.69;4928689;28;20094;-84
2023/06/16 08:42:23;;;;;;;8.93;4.63;;;;;;;22.71;40.69;99963.03;4925683;28;20055;-84
2023/06/16 08:44:53;;;;;;;8.45;4.68;;;;;;;22.77;40.48;99959.50;4914540;28;20044;-85
2023/06/16 08:47:19;;;;;;;15.80;4.93;;;;;;;22.82;39.64;99961.56;4914381;28;20068;-84
2023/06/16 08:49:46;;;;;;;7.50;4.93;;;;;;;22.87;39.81;99959.91;4910770;28;20044;-85
2023/06/16 08:52:16;;;;;;;6.15;4.85;;;;;;;22.88;39.49;99956.13;4913863;28;20052;-84
2023/06/16 08:54:57;;;;;;;8.63;5.22;;;;;;;22.91;39.41;99963.81;4912942;28;20570;-84
2023/06/16 08:57:24;;;;;;;7.13;4.63;;;;;;;22.93;39.74;99961.72;4913765;28;20052;-84
2023/06/16 08:59:54;;;;;;;7.82;4.50;;;;;;;22.96;39.10;99964.00;4928799;28;20052;-85
2023/06/16 09:02:21;;;;;;;8.40;4.88;;;;;;;22.92;37.91;99960.09;4898820;28;20181;-85
2023/06/16 09:04:48;;;;;;;8.02;4.88;;;;;;;22.96;38.08;99949.66;4923642;28;20487;-85
2023/06/16 09:07:19;;;;;;;8.40;5.25;;;;;;;22.96;37.75;99953.19;4928665;28;20119;-85
2023/06/16 09:09:46;;;;;;;6.45;4.50;;;;;;;22.99;37.81;99948.41;4913142;28;20048;-84
2023/06/16 09:12:13;;;;;;;8.15;5.00;;;;;;;23.03;37.79;99944.25;4913883;28;20055;-84
2023/06/16 09:14:41;;;;;;;6.00;4.60;;;;;;;23.06;38.38;99947.34;4915875;28;20110;-85
2023/06/16 09:17:09;;;;;;;6.35;4.60;;;;;;;23.07;38.76;99938.16;4898501;28;20060;-84
2023/06/16 09:19:47;;;;;;;7.03;4.97;;;;;;;23.09;37.64;99943.38;4910090;28;20059;-85
2023/06/16 09:22:22;;;;;;;7.72;4.97;;;;;;;23.14;37.88;99943.56;4927901;28;20079;-85
2023/06/16 09:24:57;;;;;;;5.40;4.88;;;;;;;23.17;35.74;99945.84;4910953;28;20145;-85
2023/06/16 09:27:43;;;;;;;8.93;4.72;;;;;;;23.12;35.67;99945.66;4909288;28;20048;-85
2023/06/16 09:30:12;;;;;;;8.18;4.82;;;;;;;23.21;35.99;99940.84;4908778;28;20044;-85
2023/06/16 09:32:39;;;;;;;7.05;4.82;;;;;;;23.29;35.12;99937.88;4899342;28;20836;-84
2023/06/16 09:35:18;;;;;;;7.28;4.63;;;;;;;23.23;34.37;99938.72;4927646;28;20159;-85
2023/06/16 09:37:46;;;;;;;6.50;4.70;;;;;;;23.29;35.05;99938.69;4896813;28;20043;-86
2023/06/16 09:40:14;;;;;;;7.78;4.60;;;;;;;23.28;35.42;99938.91;4895060;28;20074;-84
2023/06/16 09:42:42;;;;;;;9.18;5.10;;;;;;;23.26;35.71;99941.84;4894921;28;20052;-85
2023/06/16 09:45:14;;;;;;;8.52;5.35;;;;;;;23.31;35.18;99930.34;4915090;28;20063;-85
2023/06/16 09:47:48;;;;;;;6.60;5.25;;;;;;;23.38;35.61;99944.69;4896024;28;20416;-86
2023/06/16 09:50:16;;;;;;;6.15;4.60;;;;;;;23.42;35.43;99926.13;4929107;28;20338;-84
2023/06/16 09:52:45;;;;;;;9.65;5.43;;;;;;;23.47;35.86;99929.84;4896027;28;20052;-84
2023/06/16 09:55:13;;;;;;;7.25;5.25;;;;;;;23.49;35.34;99937.75;4915516;28;20909;-85
2023/06/16 09:57:42;;;;;;;10.90;5.88;;;;;;;23.47;34.69;99921.72;4912274;28;20561;-85
2023/06/16 10:00:15;;;;;;;8.13;5.15;;;;;;;23.36;35.49;99923.22;4909636;28;20048;-85
2023/06/16 10:02:46;;;;;;;11.05;5.40;;;;;;;23.30;35.62;99929.50;4926869;28;20134;-85
2023/06/16 10:05:15;;;;;;;10.77;5.10;;;;;;;23.29;35.82;99938.69;4928313;28;20414;-85
2023/06/16 10:07:43;;;;;;;10.82;5.50;;;;;;;23.26;35.93;99932.88;4904357;28;20048;-84
2023/06/16 10:10:11;;;;;;;12.30;5.38;;;;;;;23.31;36.33;99927.66;4895496;28;20039;-84
2023/06/16 10:12:48;;;;;;;6.72;4.75;;;;;;;23.31;36.42;99923.06;4912994;28;20074;-84
2023/06/16 10:15:20;;;;;;;10.55;5.07;;;;;;;23.38;35.98;99915.72;4914039;28;20838;-85
2023/06/16 10:17:49;;;;;;;6.35;5.07;;;;;;;23.46;35.57;99917.34;4914278;28;20063;-85
2023/06/16 10:20:18;;;;;;;8.80;5.00;;;;;;;23.58;36.12;99909.31;4908586;28;20043;-85
2023/06/16 10:22:46;;;;;;;8.45;4.70;;;;;;;23.57;36.37;99913.94;4913504;28;20040;-85
2023/06/16 10:25:13;;;;;;;7.85;5.60;;;;;;;23.61;36.08;99922.47;4901622;28;20067;-85
2023/06/16 10:27:41;;;;;;;6.00;4.72;;;;;;;23.66;35.40;99914.50;4911077;28;20689;-85
2023/06/16 10:30:09;;;;;;;7.68;4.88;;;;;;;23.67;34.93;99918.88;4906626;28;20048;-85
2023/06/16 10:32:37;;;;;;;6.03;4.80;;;;;;;23.68;34.83;99914.28;4924421;28;20777;-84
2023/06/16 10:35:07;;;;;;;6.63;4.50;;;;;;;23.61;35.04;99917.03;4913631;28;20036;-84
2023/06/16 10:37:34;;;;;;;11.65;5.55;;;;;;;23.58;34.37;99926.44;4914623;28;20087;-85
2023/06/16 10:40:05;;;;;;;7.80;4.78;;;;;;;23.51;34.55;99912.09;4926570;28;20663;-84
2023/06/16 10:42:35;;;;;;;7.20;5.18;;;;;;;23.50;34.84;99915.84;4914650;28;20455;-84
2023/06/16 10:45:25;;;;;;;9.40;5.30;;;;;;;23.45;34.66;99906.72;4899097;28;20070;-84
2023/06/16 10:48:04;;;;;;;6.10;4.72;;;;;;;23.55;34.41;99909.78;4914738;28;20487;-84
2023/06/16 10:50:40;;;;;;;11.63;5.10;;;;;;;23.60;34.91;99910.78;4909818;28;20044;-85
2023/06/16 10:53:18;;;;;;;7.70;4.82;;;;;;;23.57;34.27;99905.78;4921577;28;20148;-84
2023/06/16 10:55:46;;;;;;;10.52;5.18;;;;;;;23.62;34.89;99900.53;4913204;28;20059;-84
2023/06/16 10:58:23;;;;;;;7.93;4.82;;;;;;;23.56;34.71;99908.72;4908367;28;20044;-84
2023/06/16 11:00:58;;;;;;;8.80;4.70;;;;;;;23.51;34.83;99917.53;4910812;28;20162;-84
2023/06/16 11:03:45;;;;;;;6.55;4.95;;;;;;;23.50;35.20;99912.31;4900410;28;20073;-84
2023/06/16 11:06:12;;;;;;;8.40;4.95;;;;;;;23.66;35.39;99900.09;4907976;28;20072;-84
2023/06/16 11:09:08;;;;;;;6.35;4.55;;;;;;;23.66;35.03;99900.09;4922383;28;20059;-84
2023/06/16 11:11:39;;;;;;;7.70;5.22;;;;;;;23.86;34.74;99902.69;4921934;28;20551;-84
2023/06/16 11:14:06;;;;;;;12.43;4.97;;;;;;;23.74;34.91;99891.75;4913779;28;20107;-86
2023/06/16 11:16:34;;;;;;;7.22;5.25;;;;;;;23.68;34.65;99919.69;4913285;28;20046;-84
2023/06/16 11:19:01;;;;;;;10.38;5.63;;;;;;;23.62;34.62;99905.13;4911729;28;20059;-84
2023/06/16 11:21:30;;;;;;;6.63;4.70;;;;;;;23.59;35.13;99908.28;4910106;28;20047;-84
2023/06/16 11:24:10;;;;;;;8.00;4.80;;;;;;;23.50;34.83;99913.13;4915173;28;20051;-83
2023/06/16 11:26:37;;;;;;;7.32;4.47;;;;;;;23.66;35.38;99900.94;4923967;28;20044;-84
2023/06/16 11:29:07;;;;;;;9.07;4.20;;;;;;;23.73;35.72;99895.50;4910552;28;20495;-84
2023/06/16 11:31:37;;;;;;;7.18;4.97;;;;;;;23.80;35.61;99899.00;4925473;28;20051;-84
2023/06/16 11:34:04;;;;;;;6.85;5.00;;;;;;;23.84;35.65;99897.50;4909027;28;20465;-83
2023/06/16 11:36:34;;;;;;;9.27;5.03;;;;;;;23.83;35.46;99890.41;4917891;28;20067;-84
2023/06/16 11:39:03;;;;;;;10.80;5.18;;;;;;;23.82;35.64;99896.91;4921161;28;20044;-83
2023/06/16 11:41:30;;;;;;;8.00;5.43;;;;;;;23.78;35.20;99909.22;4900576;28;20048;-84